createdAt,value
2018-04-18T00:01:19.586Z,11.90
2018-04-18T00:03:47.116Z,11.90
2018-04-18T00:06:14.621Z,11.80
2018-04-18T00:08:42.117Z,11.80
2018-04-18T00:11:09.827Z,11.70
2018-04-18T00:13:37.356Z,11.70
2018-04-18T00:16:04.861Z,11.60
2018-04-18T00:18:33.290Z,11.50
2018-04-18T00:21:00.798Z,11.50
2018-04-18T00:23:28.358Z,11.50
2018-04-18T00:25:55.857Z,11.50
2018-04-18T00:28:23.383Z,11.50
2018-04-18T00:30:50.876Z,11.40
2018-04-18T00:33:18.382Z,11.40
2018-04-18T00:35:46.652Z,11.40
2018-04-18T00:38:14.924Z,11.30
2018-04-18T00:40:42.426Z,11.30
2018-04-18T00:43:09.918Z,11.30
2018-04-18T00:45:37.392Z,11.30
2018-04-18T00:48:04.884Z,11.20
2018-04-18T00:50:32.430Z,11.20
2018-04-18T00:52:59.925Z,11.10
2018-04-18T00:55:27.428Z,11.10
2018-04-18T00:57:54.926Z,11.10
2018-04-18T01:00:22.418Z,11.00
2018-04-18T01:02:50.741Z,11.00
2018-04-18T01:05:18.253Z,10.90
2018-04-18T01:07:46.498Z,10.90
2018-04-18T01:10:13.992Z,10.90
2018-04-18T01:12:42.298Z,10.90
2018-04-18T01:15:09.802Z,10.90
2018-04-18T01:17:37.324Z,10.90
2018-04-18T01:20:04.856Z,10.80
2018-04-18T01:22:32.341Z,10.80
2018-04-18T01:25:00.281Z,10.80
2018-04-18T01:27:27.840Z,10.80
2018-04-18T01:29:55.362Z,10.80
2018-04-18T01:32:22.923Z,10.80
2018-04-18T01:34:50.484Z,10.80
2018-04-18T01:37:18.048Z,10.80
2018-04-18T01:39:46.260Z,10.80
2018-04-18T01:42:13.765Z,10.80
2018-04-18T01:44:41.335Z,10.90
2018-04-18T01:47:08.829Z,10.90
2018-04-18T01:49:36.300Z,10.80
2018-04-18T01:52:04.556Z,10.80
2018-04-18T01:54:32.066Z,10.70
2018-04-18T01:56:59.551Z,10.70
2018-04-18T01:59:27.085Z,10.70
2018-04-18T02:01:54.591Z,10.70
2018-04-18T02:04:22.996Z,10.60
2018-04-18T02:06:50.487Z,10.60
2018-04-18T02:09:17.987Z,10.60
2018-04-18T02:11:46.247Z,10.60
2018-04-18T02:14:14.565Z,10.60
2018-04-18T02:16:42.121Z,10.60
2018-04-18T02:19:09.613Z,10.50
2018-04-18T02:21:37.166Z,10.50
2018-04-18T02:24:04.675Z,10.50
2018-04-18T02:26:32.262Z,10.40
2018-04-18T02:28:59.753Z,10.30
2018-04-18T02:31:27.268Z,10.30
2018-04-18T02:33:54.769Z,10.30
2018-04-18T02:36:22.276Z,10.20
2018-04-18T02:38:49.836Z,10.20
2018-04-18T02:41:17.322Z,10.10
2018-04-18T02:43:44.826Z,10.10
2018-04-18T02:46:12.309Z,10.00
2018-04-18T02:48:39.833Z,10.00
2018-04-18T02:51:07.311Z,10.00
2018-04-18T02:53:34.821Z,10.00
2018-04-18T02:56:02.307Z,9.90
2018-04-18T02:58:29.808Z,9.90
2018-04-18T03:00:57.326Z,9.90
2018-04-18T03:03:24.889Z,9.90
2018-04-18T03:05:52.410Z,9.90
2018-04-18T03:08:20.730Z,9.90
2018-04-18T03:10:49.719Z,9.80
2018-04-18T03:13:17.216Z,9.80
2018-04-18T03:15:45.476Z,9.80
2018-04-18T03:18:21.198Z,9.80
2018-04-18T03:20:48.676Z,9.80
2018-04-18T03:23:16.180Z,9.80
2018-04-18T03:25:45.254Z,9.80
2018-04-18T03:28:12.871Z,9.70
2018-04-18T03:30:40.366Z,9.80
2018-04-18T03:33:08.656Z,9.70
2018-04-18T03:35:36.166Z,9.70
2018-04-18T03:38:03.692Z,9.70
2018-04-18T03:40:31.163Z,9.70
2018-04-18T03:42:58.635Z,9.70
2018-04-18T03:45:26.181Z,9.70
2018-04-18T03:47:53.667Z,9.70
2018-04-18T03:50:22.079Z,9.70
2018-04-18T03:52:49.579Z,9.70
2018-04-18T03:55:17.094Z,9.70
2018-04-18T03:57:44.606Z,9.70
2018-04-18T04:00:12.872Z,9.60
2018-04-18T04:02:41.192Z,9.60
2018-04-18T04:05:08.667Z,9.60
2018-04-18T04:07:36.207Z,9.50
2018-04-18T04:10:03.718Z,9.50
2018-04-18T04:12:31.192Z,9.50
2018-04-18T04:14:58.684Z,9.50
2018-04-18T04:17:50.834Z,9.40
2018-04-18T04:20:30.230Z,9.40
2018-04-18T04:23:19.190Z,9.40
2018-04-18T04:25:46.664Z,9.40
2018-04-18T04:28:14.160Z,9.40
2018-04-18T04:30:41.642Z,9.40
2018-04-18T04:33:09.290Z,9.40
2018-04-18T04:35:36.966Z,9.40
2018-04-18T04:38:04.469Z,9.40
2018-04-18T04:40:31.936Z,9.40
2018-04-18T04:42:59.411Z,9.40
2018-04-18T04:45:26.922Z,9.40
2018-04-18T04:47:54.424Z,9.40
2018-04-18T04:50:22.735Z,9.40
2018-04-18T04:52:50.501Z,9.40
2018-04-18T04:55:17.975Z,9.50
2018-04-18T04:57:45.417Z,9.50
2018-04-18T05:00:13.070Z,9.50
2018-04-18T05:02:40.536Z,9.50
2018-04-18T05:05:08.051Z,9.60
2018-04-18T05:07:36.319Z,9.70
2018-04-18T05:10:03.828Z,9.60
2018-04-18T05:12:31.321Z,9.60
2018-04-18T05:14:58.807Z,9.70
2018-04-18T05:17:27.087Z,9.70
2018-04-18T05:19:54.577Z,9.70
2018-04-18T05:22:22.107Z,9.70
2018-04-18T05:24:49.573Z,9.70
2018-04-18T05:27:17.126Z,9.70
2018-04-18T05:29:44.665Z,9.70
2018-04-18T05:32:12.208Z,9.80
2018-04-18T05:34:39.765Z,9.70
2018-04-18T05:37:07.247Z,9.70
2018-04-18T05:39:34.787Z,9.70
2018-04-18T05:42:03.091Z,9.80
2018-04-18T05:44:30.658Z,9.80
2018-04-18T05:46:58.211Z,9.80
2018-04-18T05:49:25.703Z,9.80
2018-04-18T05:51:53.975Z,9.90
2018-04-18T05:54:21.480Z,9.90
2018-04-18T05:56:48.950Z,10.00
2018-04-18T05:59:16.445Z,10.00
2018-04-18T06:01:43.945Z,10.10
2018-04-18T06:04:11.422Z,10.10
2018-04-18T06:06:38.899Z,10.20
2018-04-18T06:09:07.199Z,10.30
2018-04-18T06:11:35.467Z,10.40
2018-04-18T06:14:03.890Z,10.40
2018-04-18T06:16:31.386Z,10.40
2018-04-18T06:18:58.903Z,10.50
2018-04-18T06:21:26.433Z,10.60
2018-04-18T06:23:54.755Z,10.70
2018-04-18T06:26:22.262Z,10.70
2018-04-18T06:28:49.771Z,10.80
2018-04-18T06:31:17.320Z,10.90
2018-04-18T06:33:44.819Z,10.90
2018-04-18T06:36:12.301Z,11.00
2018-04-18T06:38:40.619Z,11.20
2018-04-18T06:41:08.932Z,11.30
2018-04-18T06:43:36.457Z,11.20
2018-04-18T06:46:04.712Z,11.40
2018-04-18T06:48:32.180Z,11.40
2018-04-18T06:50:59.656Z,11.50
2018-04-18T06:53:27.135Z,11.60
2018-04-18T06:55:54.657Z,11.60
2018-04-18T06:58:22.155Z,11.70
2018-04-18T07:00:49.649Z,11.80
2018-04-18T07:03:17.280Z,11.80
2018-04-18T07:05:44.781Z,11.90
2018-04-18T07:08:13.060Z,12.00
2018-04-18T07:10:40.551Z,12.00
2018-04-18T07:13:08.952Z,12.20
2018-04-18T07:15:36.433Z,12.20
2018-04-18T07:18:03.938Z,12.20
2018-04-18T07:20:31.441Z,12.30
2018-04-18T07:22:59.730Z,12.50
2018-04-18T07:25:27.204Z,12.40
2018-04-18T07:27:54.764Z,12.50
2018-04-18T07:30:22.350Z,12.60
2018-04-18T07:32:49.903Z,12.60
2018-04-18T07:35:18.329Z,12.70
2018-04-18T07:37:45.808Z,12.80
2018-04-18T07:40:13.323Z,12.90
2018-04-18T07:42:40.805Z,12.90
2018-04-18T07:45:08.302Z,13.00
2018-04-18T07:47:35.794Z,13.00
2018-04-18T07:50:03.353Z,13.10
2018-04-18T07:52:30.859Z,13.20
2018-04-18T07:54:58.443Z,13.20
2018-04-18T07:57:25.896Z,13.30
2018-04-18T07:59:53.407Z,13.40
2018-04-18T08:02:21.714Z,13.50
2018-04-18T08:04:49.251Z,13.60
2018-04-18T08:07:16.751Z,13.60
2018-04-18T08:09:45.723Z,13.80
2018-04-18T08:12:13.209Z,13.80
2018-04-18T08:14:40.705Z,13.90
2018-04-18T08:17:08.967Z,14.10
2018-04-18T08:19:37.583Z,14.20
2018-04-18T08:22:05.090Z,14.10
2018-04-18T08:24:32.607Z,14.20
2018-04-18T08:27:00.217Z,14.40
2018-04-18T08:29:27.714Z,14.50
2018-04-18T08:31:55.319Z,14.60
2018-04-18T08:34:22.825Z,14.60
2018-04-18T08:36:50.360Z,14.80
2018-04-18T08:39:17.854Z,14.90
2018-04-18T08:41:46.102Z,15.10
2018-04-18T08:44:13.622Z,15.10
2018-04-18T08:46:42.077Z,15.20
2018-04-18T08:49:10.381Z,15.40
2018-04-18T08:51:37.867Z,15.30
2018-04-18T08:54:06.130Z,15.60
2018-04-18T08:56:34.386Z,15.60
2018-04-18T08:59:01.873Z,15.60
2018-04-18T09:01:29.455Z,15.70
2018-04-18T09:03:57.006Z,15.70
2018-04-18T09:06:24.523Z,15.80
2018-04-18T09:08:52.809Z,16.00
2018-04-18T09:11:20.295Z,15.90
2018-04-18T09:13:47.898Z,16.00
2018-04-18T09:16:15.378Z,16.10
2018-04-18T09:18:42.883Z,16.20
2018-04-18T09:21:10.529Z,16.30
2018-04-18T09:23:38.196Z,16.40
2018-04-18T09:26:05.708Z,16.50
2018-04-18T09:28:33.971Z,16.70
2018-04-18T09:31:01.453Z,16.70
2018-04-18T09:33:28.991Z,16.80
2018-04-18T09:35:56.494Z,17.00
2018-04-18T09:38:23.969Z,17.10
2018-04-18T09:40:52.282Z,17.40
2018-04-18T09:43:19.787Z,17.40
2018-04-18T09:45:47.297Z,17.50
2018-04-18T09:48:20.720Z,17.50
2018-04-18T09:50:48.349Z,17.50
2018-04-18T09:53:15.814Z,17.50
2018-04-18T09:55:43.294Z,17.60
2018-04-18T09:58:10.772Z,17.60
2018-04-18T10:00:44.268Z,17.60
2018-04-18T10:03:15.609Z,17.80
2018-04-18T10:05:43.127Z,17.80
2018-04-18T10:08:10.627Z,17.80
2018-04-18T10:10:38.160Z,17.90
2018-04-18T10:13:05.711Z,18.00
2018-04-18T10:15:33.211Z,18.00
2018-04-18T10:18:00.730Z,18.10
2018-04-18T10:20:28.205Z,18.20
2018-04-18T10:22:55.867Z,18.20
2018-04-18T10:25:23.237Z,18.30
2018-04-18T10:27:50.855Z,18.30
2018-04-18T10:30:18.360Z,18.40
2018-04-18T10:32:46.613Z,18.40
2018-04-18T10:35:14.102Z,18.40
2018-04-18T10:37:42.360Z,18.50
2018-04-18T10:40:09.892Z,18.50
2018-04-18T10:42:37.360Z,18.60
2018-04-18T10:45:04.880Z,18.70
2018-04-18T10:47:33.186Z,18.90
2018-04-18T10:50:00.698Z,18.90
2018-04-18T10:52:28.195Z,19.00
2018-04-18T10:54:55.702Z,19.00
2018-04-18T10:57:23.205Z,19.00
2018-04-18T10:59:50.672Z,19.00
2018-04-18T11:02:18.150Z,19.10
2018-04-18T11:04:45.614Z,19.20
2018-04-18T11:07:13.081Z,19.30
2018-04-18T11:09:42.188Z,19.40
2018-04-18T11:12:09.754Z,19.40
2018-04-18T11:14:38.021Z,19.50
2018-04-18T11:17:06.295Z,19.50
2018-04-18T11:19:34.706Z,19.50
2018-04-18T11:22:02.232Z,19.40
2018-04-18T11:24:29.709Z,19.40
2018-04-18T11:26:57.211Z,19.50
2018-04-18T11:29:25.479Z,19.50
2018-04-18T11:31:53.789Z,19.60
2018-04-18T11:34:21.317Z,19.60
2018-04-18T11:36:49.729Z,19.60
2018-04-18T11:39:17.209Z,19.60
2018-04-18T11:41:44.705Z,19.70
2018-04-18T11:44:12.202Z,19.80
2018-04-18T11:46:39.709Z,19.80
2018-04-18T11:49:07.237Z,19.90
2018-04-18T11:51:34.779Z,19.90
2018-04-18T11:54:02.267Z,19.90
2018-04-18T11:56:29.771Z,19.90
2018-04-18T11:58:57.317Z,20.00
2018-04-18T12:01:24.795Z,20.00
2018-04-18T12:03:53.049Z,20.10
2018-04-18T12:06:21.036Z,20.10
2018-04-18T12:08:49.332Z,20.20
2018-04-18T12:11:16.851Z,20.20
2018-04-18T12:13:45.079Z,20.30
2018-04-18T12:16:12.613Z,20.20
2018-04-18T12:18:40.097Z,20.30
2018-04-18T12:21:07.586Z,20.40
2018-04-18T12:23:35.078Z,20.40
2018-04-18T12:26:03.389Z,20.60
2018-04-18T12:28:30.949Z,20.50
2018-04-18T12:30:59.236Z,20.70
2018-04-18T12:33:27.432Z,20.60
2018-04-18T12:35:54.934Z,20.70
2018-04-18T12:38:22.410Z,20.70
2018-04-18T12:40:50.674Z,20.90
2018-04-18T12:43:18.949Z,21.00
2018-04-18T12:45:47.204Z,21.20
2018-04-18T12:48:14.926Z,21.10
2018-04-18T12:50:42.477Z,21.20
2018-04-18T12:53:09.963Z,21.20
2018-04-18T12:55:37.460Z,21.10
2018-04-18T12:58:05.782Z,21.10
2018-04-18T13:00:33.330Z,21.10
2018-04-18T13:03:01.588Z,21.10
2018-04-18T13:05:29.074Z,21.00
2018-04-18T13:07:57.360Z,21.10
2018-04-18T13:10:24.906Z,21.10
2018-04-18T13:13:00.023Z,21.10
2018-04-18T13:15:27.507Z,21.20
2018-04-18T13:17:54.965Z,21.30
2018-04-18T13:20:22.443Z,21.30
2018-04-18T13:22:50.680Z,21.30
2018-04-18T13:25:18.215Z,21.20
2018-04-18T13:27:45.719Z,21.30
2018-04-18T13:30:14.006Z,21.40
2018-04-18T13:32:41.488Z,21.40
2018-04-18T13:35:09.000Z,21.50
2018-04-18T13:37:37.243Z,21.50
2018-04-18T13:40:04.760Z,21.40
2018-04-18T13:42:32.253Z,21.40
2018-04-18T13:44:59.879Z,21.60
2018-04-18T13:47:27.376Z,21.60
2018-04-18T13:49:54.878Z,21.60
2018-04-18T13:52:22.491Z,21.60
2018-04-18T13:54:50.113Z,21.70
2018-04-18T13:57:17.577Z,21.60
2018-04-18T13:59:45.399Z,21.70
2018-04-18T14:02:12.907Z,21.70
2018-04-18T14:04:41.207Z,21.80
2018-04-18T14:07:08.764Z,21.80
2018-04-18T14:09:37.241Z,21.80
2018-04-18T14:12:04.768Z,21.90
2018-04-18T14:14:32.271Z,21.90
2018-04-18T14:16:59.893Z,21.90
2018-04-18T14:19:27.383Z,21.90
2018-04-18T14:21:54.855Z,21.90
2018-04-18T14:24:22.354Z,21.90
2018-04-18T14:26:49.875Z,22.00
2018-04-18T14:29:18.155Z,22.00
2018-04-18T14:31:45.665Z,22.00
2018-04-18T14:34:14.070Z,22.10
2018-04-18T14:36:41.548Z,22.10
2018-04-18T14:39:09.191Z,22.20
2018-04-18T14:41:36.720Z,22.20
2018-04-18T14:44:04.253Z,22.20
2018-04-18T14:46:32.530Z,22.20
2018-04-18T14:49:00.860Z,22.30
2018-04-18T14:51:28.392Z,22.30
2018-04-18T14:53:55.952Z,22.30
2018-04-18T14:56:23.512Z,22.40
2018-04-18T14:58:50.984Z,22.50
2018-04-18T15:01:18.615Z,22.60
2018-04-18T15:03:46.110Z,22.70
2018-04-18T15:06:14.080Z,22.80
2018-04-18T15:08:41.862Z,23.00
2018-04-18T15:11:09.445Z,23.10
2018-04-18T15:13:36.946Z,23.30
2018-04-18T15:16:04.486Z,23.40
2018-04-18T15:18:31.979Z,23.40
2018-04-18T15:20:59.476Z,23.50
2018-04-18T15:23:27.073Z,24.10
2018-04-18T15:25:54.549Z,25.70
2018-04-18T15:28:22.087Z,27.80
2018-04-18T15:30:49.570Z,30.40
2018-04-18T15:33:17.073Z,33.30
2018-04-18T15:35:44.581Z,35.80
2018-04-18T15:38:12.119Z,37.90
2018-04-18T15:40:39.583Z,39.60
2018-04-18T15:43:07.134Z,40.90
2018-04-18T15:45:34.691Z,41.60
2018-04-18T15:48:02.256Z,41.70
2018-04-18T15:50:29.798Z,41.20
2018-04-18T15:52:57.241Z,40.80
2018-04-18T15:55:24.748Z,39.90
2018-04-18T15:57:52.316Z,38.40
2018-04-18T16:00:19.847Z,36.30
2018-04-18T16:02:47.344Z,35.00
2018-04-18T16:05:14.824Z,35.00
2018-04-18T16:07:43.126Z,37.90
2018-04-18T16:10:11.393Z,38.80
2018-04-18T16:12:39.101Z,38.80
2018-04-18T16:15:06.763Z,38.70
2018-04-18T16:17:34.326Z,38.50
2018-04-18T16:20:01.847Z,37.40
2018-04-18T16:22:29.408Z,36.00
2018-04-18T16:24:56.964Z,34.80
2018-04-18T16:27:24.532Z,34.00
2018-04-18T16:29:52.126Z,32.90
2018-04-18T16:32:19.660Z,31.90
2018-04-18T16:34:47.198Z,31.20
2018-04-18T16:37:14.758Z,30.50
2018-04-18T16:39:43.046Z,29.90
2018-04-18T16:42:10.637Z,29.40
2018-04-18T16:44:38.160Z,29.10
2018-04-18T16:47:05.625Z,29.10
2018-04-18T16:49:33.117Z,28.90
2018-04-18T16:52:00.828Z,28.50
2018-04-18T16:54:28.387Z,27.90
2018-04-18T16:56:55.948Z,27.10
2018-04-18T16:59:23.440Z,26.20
2018-04-18T17:01:51.706Z,24.80
2018-04-18T17:04:19.977Z,24.20
2018-04-18T17:06:48.471Z,23.70
2018-04-18T17:09:15.966Z,23.70
2018-04-18T17:11:44.222Z,23.00
2018-04-18T17:14:12.469Z,22.70
2018-04-18T17:16:39.985Z,22.70
2018-04-18T17:19:07.482Z,22.40
2018-04-18T17:21:35.009Z,22.20
2018-04-18T17:24:02.488Z,22.00
2018-04-18T17:26:30.033Z,21.80
2018-04-18T17:28:57.589Z,21.70
2018-04-18T17:31:25.846Z,21.40
2018-04-18T17:33:53.366Z,21.30
2018-04-18T17:36:20.918Z,21.20
2018-04-18T17:38:48.420Z,21.10
2018-04-18T17:41:16.833Z,20.80
2018-04-18T17:43:44.391Z,20.80
2018-04-18T17:46:11.954Z,20.70
2018-04-18T17:48:39.535Z,20.50
2018-04-18T17:51:07.008Z,20.40
2018-04-18T17:53:35.266Z,20.20
2018-04-18T17:56:03.510Z,20.10
2018-04-18T17:58:31.040Z,20.00
2018-04-18T18:00:58.548Z,19.90
2018-04-18T18:03:26.509Z,19.80
2018-04-18T18:05:54.030Z,19.70
2018-04-18T18:08:21.643Z,19.60
2018-04-18T18:10:49.223Z,19.50
2018-04-18T18:13:16.743Z,19.40
2018-04-18T18:15:44.296Z,19.40
2018-04-18T18:18:22.111Z,19.20
2018-04-18T18:20:49.697Z,19.10
2018-04-18T18:23:17.193Z,19.00
2018-04-18T18:25:45.503Z,18.80
2018-04-18T18:28:13.002Z,18.80
2018-04-18T18:30:40.523Z,18.80
2018-04-18T18:33:08.029Z,18.70
2018-04-18T18:35:35.529Z,18.60
2018-04-18T18:38:03.094Z,18.50
2018-04-18T18:40:30.608Z,18.50
2018-04-18T18:42:58.161Z,18.40
2018-04-18T18:45:25.663Z,18.40
2018-04-18T18:47:53.282Z,18.30
2018-04-18T18:50:20.812Z,18.20
2018-04-18T18:52:49.424Z,18.10
2018-04-18T18:55:16.931Z,18.10
2018-04-18T18:57:44.546Z,18.10
2018-04-18T19:00:12.087Z,18.00
2018-04-18T19:02:40.355Z,17.90
2018-04-18T19:05:08.014Z,17.80
2018-04-18T19:07:35.516Z,17.80
2018-04-18T19:10:03.020Z,17.70
2018-04-18T19:12:31.263Z,17.60
2018-04-18T19:14:58.773Z,17.60
2018-04-18T19:17:26.266Z,17.50
2018-04-18T19:19:53.881Z,17.40
2018-04-18T19:22:21.431Z,17.30
2018-04-18T19:24:49.676Z,17.20
2018-04-18T19:27:17.934Z,17.20
2018-04-18T19:29:46.109Z,17.10
2018-04-18T19:32:14.451Z,17.10
2018-04-18T19:34:42.002Z,17.10
2018-04-18T19:37:09.566Z,17.00
2018-04-18T19:39:37.828Z,16.90
2018-04-18T19:42:05.363Z,16.90
2018-04-18T19:44:33.653Z,16.80
2018-04-18T19:47:01.898Z,16.80
2018-04-18T19:49:29.395Z,16.70
2018-04-18T19:51:57.638Z,16.70
2018-04-18T19:54:25.121Z,16.60
2018-04-18T19:56:53.892Z,16.60
2018-04-18T19:59:21.415Z,16.50
2018-04-18T20:01:48.934Z,16.50
2018-04-18T20:04:16.475Z,16.50
2018-04-18T20:06:43.974Z,16.40
2018-04-18T20:09:11.498Z,16.40
2018-04-18T20:11:39.054Z,16.30
2018-04-18T20:14:06.568Z,16.30
2018-04-18T20:16:34.892Z,16.20
2018-04-18T20:19:02.443Z,16.10
2018-04-18T20:21:29.944Z,16.10
2018-04-18T20:23:58.214Z,16.00
2018-04-18T20:26:25.723Z,16.00
2018-04-18T20:28:53.205Z,16.00
2018-04-18T20:31:20.770Z,15.90
2018-04-18T20:33:48.440Z,15.90
2018-04-18T20:36:15.994Z,15.90
2018-04-18T20:38:43.497Z,15.80
2018-04-18T20:41:11.034Z,15.70
2018-04-18T20:43:38.534Z,15.70
2018-04-18T20:46:06.120Z,15.70
2018-04-18T20:48:33.684Z,15.70
2018-04-18T20:51:01.962Z,15.60
2018-04-18T20:53:30.208Z,15.50
2018-04-18T20:55:57.737Z,15.50
2018-04-18T20:58:25.245Z,15.50
2018-04-18T21:00:52.782Z,15.50
2018-04-18T21:03:20.350Z,15.50
2018-04-18T21:05:47.842Z,15.40
2018-04-18T21:08:15.326Z,15.40
2018-04-18T21:10:42.826Z,15.40
2018-04-18T21:13:10.695Z,15.30
2018-04-18T21:15:38.185Z,15.30
2018-04-18T21:18:05.678Z,15.30
2018-04-18T21:20:33.155Z,15.30
2018-04-18T21:23:01.418Z,15.20
2018-04-18T21:25:28.963Z,15.20
2018-04-18T21:27:57.220Z,15.20
2018-04-18T21:30:24.756Z,15.10
2018-04-18T21:32:52.249Z,15.10
2018-04-18T21:35:19.873Z,15.10
2018-04-18T21:37:47.362Z,15.00
2018-04-18T21:40:14.863Z,15.00
2018-04-18T21:42:42.357Z,15.00
2018-04-18T21:45:10.619Z,14.90
2018-04-18T21:47:38.334Z,14.90
2018-04-18T21:50:05.847Z,14.90
2018-04-18T21:52:33.339Z,14.80
2018-04-18T21:55:00.864Z,14.80
2018-04-18T21:57:29.186Z,14.70
2018-04-18T21:59:56.764Z,14.70
2018-04-18T22:02:24.257Z,14.70
2018-04-18T22:04:51.749Z,14.70
2018-04-18T22:07:20.006Z,14.60
2018-04-18T22:09:47.500Z,14.60
2018-04-18T22:12:15.009Z,14.60
2018-04-18T22:14:42.509Z,14.60
2018-04-18T22:17:10.061Z,14.60
2018-04-18T22:19:37.800Z,14.50
2018-04-18T22:22:05.331Z,14.50
2018-04-18T22:24:33.203Z,14.50
2018-04-18T22:27:00.675Z,14.50
2018-04-18T22:29:28.212Z,14.40
2018-04-18T22:31:56.506Z,14.40
2018-04-18T22:34:24.002Z,14.40
2018-04-18T22:36:51.525Z,14.40
2018-04-18T22:39:19.033Z,14.30
2018-04-18T22:41:46.517Z,14.30
2018-04-18T22:44:14.001Z,14.30
2018-04-18T22:46:42.257Z,14.20
2018-04-18T22:49:09.786Z,14.20
2018-04-18T22:51:37.268Z,14.20
2018-04-18T22:54:04.754Z,14.20
2018-04-18T22:56:32.262Z,14.10
2018-04-18T22:58:59.823Z,14.10
2018-04-18T23:01:28.073Z,14.00
2018-04-18T23:03:55.584Z,14.00
2018-04-18T23:06:23.248Z,14.00
2018-04-18T23:08:50.779Z,14.00
2018-04-18T23:11:18.275Z,13.90
2018-04-18T23:13:45.766Z,13.90
2018-04-18T23:16:13.341Z,13.90
2018-04-18T23:18:40.905Z,13.80
2018-04-18T23:21:08.401Z,13.80
2018-04-18T23:23:36.691Z,13.80
2018-04-18T23:26:04.603Z,13.80
2018-04-18T23:28:32.114Z,13.80
2018-04-18T23:30:59.706Z,13.70
2018-04-18T23:33:27.205Z,13.60
2018-04-18T23:35:54.679Z,13.60
2018-04-18T23:38:22.185Z,13.60
2018-04-18T23:40:50.456Z,13.60
2018-04-18T23:43:18.760Z,13.50
2018-04-18T23:45:46.272Z,13.50
2018-04-18T23:48:13.756Z,13.50
2018-04-18T23:50:41.252Z,13.40
2018-04-18T23:53:08.754Z,13.40
2018-04-18T23:55:36.253Z,13.40
2018-04-18T23:58:03.831Z,13.40
